createdAt,value
2019-01-15T00:00:49.678Z,-0.70
2019-01-15T00:03:19.294Z,-0.70
2019-01-15T00:05:48.952Z,-0.70
2019-01-15T00:08:18.715Z,-0.70
2019-01-15T00:10:48.370Z,-0.70
2019-01-15T00:13:17.959Z,-0.70
2019-01-15T00:15:47.548Z,-0.70
2019-01-15T00:18:17.171Z,-0.70
2019-01-15T00:20:46.815Z,-0.70
2019-01-15T00:23:16.512Z,-0.70
2019-01-15T00:25:46.120Z,-0.70
2019-01-15T00:28:15.752Z,-0.70
2019-01-15T00:30:45.350Z,-0.70
2019-01-15T00:33:15.003Z,-0.70
2019-01-15T00:35:44.603Z,-0.70
2019-01-15T00:38:14.676Z,-0.70
2019-01-15T00:40:44.266Z,-0.70
2019-01-15T00:43:13.871Z,-0.70
2019-01-15T00:45:43.484Z,-0.70
2019-01-15T00:48:13.059Z,-0.70
2019-01-15T00:50:42.696Z,-0.60
2019-01-15T00:53:12.337Z,-0.70
2019-01-15T00:55:42.090Z,-0.70
2019-01-15T00:58:11.858Z,-0.70
2019-01-15T01:00:42.009Z,-0.70
2019-01-15T01:03:11.618Z,-0.70
2019-01-15T01:05:42.235Z,-0.70
2019-01-15T01:08:11.856Z,-0.80
2019-01-15T01:10:41.515Z,-0.80
2019-01-15T01:13:11.115Z,-0.80
2019-01-15T01:15:40.730Z,-0.80
2019-01-15T01:18:10.353Z,-0.80
2019-01-15T01:20:39.930Z,-0.80
2019-01-15T01:23:09.607Z,-0.80
2019-01-15T01:25:39.205Z,-0.80
2019-01-15T01:28:08.802Z,-0.80
2019-01-15T01:30:38.374Z,-0.70
2019-01-15T01:33:07.946Z,-0.70
2019-01-15T01:35:37.499Z,-0.70
2019-01-15T01:38:07.072Z,-0.80
2019-01-15T01:40:36.712Z,-0.80
2019-01-15T01:43:06.372Z,-0.70
2019-01-15T01:45:35.927Z,-0.80
2019-01-15T01:48:05.574Z,-0.80
2019-01-15T01:50:35.170Z,-0.80
2019-01-15T01:53:04.832Z,-0.80
2019-01-15T01:55:34.419Z,-0.80
2019-01-15T01:58:04.016Z,-0.80
2019-01-15T02:00:33.632Z,-0.80
2019-01-15T02:03:03.509Z,-0.80
2019-01-15T02:05:33.176Z,-0.80
2019-01-15T02:08:02.786Z,-0.80
2019-01-15T02:10:32.422Z,-0.80
2019-01-15T02:13:02.005Z,-0.80
2019-01-15T02:15:31.594Z,-0.80
2019-01-15T02:18:01.270Z,-0.80
2019-01-15T02:20:30.839Z,-0.80
2019-01-15T02:23:00.504Z,-0.90
2019-01-15T02:25:30.092Z,-0.90
2019-01-15T02:27:59.810Z,-0.90
2019-01-15T02:30:29.405Z,-0.90
2019-01-15T02:32:58.980Z,-0.90
2019-01-15T02:35:28.573Z,-0.90
2019-01-15T02:37:58.231Z,-0.90
2019-01-15T02:40:28.035Z,-1.00
2019-01-15T02:42:57.686Z,-1.00
2019-01-15T02:45:27.285Z,-1.00
2019-01-15T02:47:56.894Z,-1.00
2019-01-15T02:50:27.506Z,-1.10
2019-01-15T02:52:57.114Z,-1.10
2019-01-15T02:55:26.687Z,-1.10
2019-01-15T02:57:56.467Z,-1.10
2019-01-15T03:00:25.984Z,-1.10
2019-01-15T03:02:55.555Z,-1.10
2019-01-15T03:05:25.227Z,-1.20
2019-01-15T03:07:54.924Z,-1.20
2019-01-15T03:10:24.597Z,-1.20
2019-01-15T03:12:56.590Z,-1.30
2019-01-15T03:15:25.543Z,-1.30
2019-01-15T03:17:55.134Z,-1.30
2019-01-15T03:20:24.728Z,-1.30
2019-01-15T03:22:54.407Z,-1.30
2019-01-15T03:25:23.990Z,-1.40
2019-01-15T03:27:53.632Z,-1.30
2019-01-15T03:30:23.853Z,-1.30
2019-01-15T03:32:53.521Z,-1.40
2019-01-15T03:35:23.185Z,-1.40
2019-01-15T03:37:53.744Z,-1.40
2019-01-15T03:40:24.908Z,-1.50
2019-01-15T03:43:02.925Z,-1.50
2019-01-15T03:45:26.867Z,-1.60
2019-01-15T03:47:56.448Z,-1.60
2019-01-15T03:50:26.155Z,-1.60
2019-01-15T03:52:55.682Z,-1.60
2019-01-15T03:55:25.391Z,-1.60
2019-01-15T03:57:54.976Z,-1.60
2019-01-15T04:00:24.571Z,-1.60
2019-01-15T04:02:54.392Z,-1.60
2019-01-15T04:05:24.046Z,-1.60
2019-01-15T04:07:55.468Z,-1.60
2019-01-15T04:10:25.243Z,-1.70
2019-01-15T04:12:54.904Z,-1.60
2019-01-15T04:15:24.567Z,-1.70
2019-01-15T04:17:54.214Z,-1.60
2019-01-15T04:20:23.903Z,-1.70
2019-01-15T04:22:53.466Z,-1.70
2019-01-15T04:25:23.097Z,-1.70
2019-01-15T04:27:52.735Z,-1.70
2019-01-15T04:30:22.546Z,-1.70
2019-01-15T04:32:52.212Z,-1.70
2019-01-15T04:35:21.942Z,-1.70
2019-01-15T04:37:51.531Z,-1.70
2019-01-15T04:40:21.234Z,-1.70
2019-01-15T04:42:50.930Z,-1.70
2019-01-15T04:45:21.806Z,-1.70
2019-01-15T04:47:51.428Z,-1.70
2019-01-15T04:50:21.121Z,-1.70
2019-01-15T04:52:54.786Z,-1.80
2019-01-15T04:55:24.478Z,-1.70
2019-01-15T04:57:54.047Z,-1.80
2019-01-15T05:00:23.763Z,-1.70
2019-01-15T05:02:54.436Z,-1.80
2019-01-15T05:05:24.077Z,-1.70
2019-01-15T05:07:53.660Z,-1.80
2019-01-15T05:10:23.244Z,-1.80
2019-01-15T05:12:52.931Z,-1.80
2019-01-15T05:15:22.506Z,-1.80
2019-01-15T05:17:52.103Z,-1.80
2019-01-15T05:20:21.836Z,-1.80
2019-01-15T05:22:51.430Z,-1.80
2019-01-15T05:25:22.191Z,-1.80
2019-01-15T05:27:51.968Z,-1.80
2019-01-15T05:30:26.123Z,-1.80
2019-01-15T05:32:55.792Z,-1.80
2019-01-15T05:35:25.374Z,-1.90
2019-01-15T05:37:55.052Z,-1.90
2019-01-15T05:40:24.655Z,-1.80
2019-01-15T05:42:54.313Z,-1.80
2019-01-15T05:45:25.870Z,-1.90
2019-01-15T05:47:56.431Z,-1.90
2019-01-15T05:50:33.520Z,-1.90
2019-01-15T05:53:03.122Z,-1.90
2019-01-15T05:55:33.806Z,-1.90
2019-01-15T05:58:03.412Z,-1.90
2019-01-15T06:00:33.054Z,-1.90
2019-01-15T06:03:02.638Z,-1.90
2019-01-15T06:05:32.330Z,-1.90
2019-01-15T06:08:03.803Z,-2.00
2019-01-15T06:10:33.583Z,-1.90
2019-01-15T06:13:03.207Z,-1.90
2019-01-15T06:15:32.875Z,-2.00
2019-01-15T06:18:02.532Z,-2.00
2019-01-15T06:20:32.134Z,-2.00
2019-01-15T06:23:01.714Z,-2.00
2019-01-15T06:25:31.299Z,-2.00
2019-01-15T06:28:00.981Z,-2.00
2019-01-15T06:30:30.561Z,-2.00
2019-01-15T06:33:00.155Z,-2.00
2019-01-15T06:35:29.771Z,-2.00
2019-01-15T06:37:59.353Z,-2.00
2019-01-15T06:40:28.949Z,-2.10
2019-01-15T06:42:58.712Z,-2.00
2019-01-15T06:45:30.033Z,-2.10
2019-01-15T06:47:59.608Z,-2.10
2019-01-15T06:50:29.280Z,-2.10
2019-01-15T06:52:59.009Z,-2.10
2019-01-15T06:55:28.594Z,-2.10
2019-01-15T06:57:58.198Z,-2.10
2019-01-15T07:00:31.535Z,-2.20
2019-01-15T07:03:01.136Z,-2.20
2019-01-15T07:05:30.719Z,-2.20
2019-01-15T07:08:01.275Z,-2.20
2019-01-15T07:10:36.645Z,-2.20
2019-01-15T07:13:06.419Z,-2.30
2019-01-15T07:15:36.021Z,-2.30
2019-01-15T07:18:05.708Z,-2.30
2019-01-15T07:20:35.265Z,-2.30
2019-01-15T07:23:04.879Z,-2.30
2019-01-15T07:25:34.511Z,-2.40
2019-01-15T07:28:04.172Z,-2.40
2019-01-15T07:30:39.569Z,-2.40
2019-01-15T07:33:09.211Z,-2.40
2019-01-15T07:35:38.888Z,-2.40
2019-01-15T07:38:08.588Z,-2.40
2019-01-15T07:40:38.176Z,-2.40
2019-01-15T07:43:07.922Z,-2.40
2019-01-15T07:45:37.604Z,-2.40
2019-01-15T07:48:07.249Z,-2.40
2019-01-15T07:50:36.841Z,-2.50
2019-01-15T07:53:06.812Z,-2.50
2019-01-15T07:55:36.468Z,-2.40
2019-01-15T07:58:06.250Z,-2.50
2019-01-15T08:00:35.845Z,-2.40
2019-01-15T08:03:05.541Z,-2.40
2019-01-15T08:05:35.135Z,-2.40
2019-01-15T08:08:05.126Z,-2.40
2019-01-15T08:10:34.861Z,-2.40
2019-01-15T08:13:04.898Z,-2.40
2019-01-15T08:15:34.676Z,-2.40
2019-01-15T08:18:04.440Z,-2.30
2019-01-15T08:20:34.136Z,-2.30
2019-01-15T08:23:03.807Z,-2.30
2019-01-15T08:25:33.407Z,-2.30
2019-01-15T08:28:03.021Z,-2.20
2019-01-15T08:30:35.065Z,-2.10
2019-01-15T08:33:04.833Z,-1.70
2019-01-15T08:35:34.448Z,-1.00
2019-01-15T08:38:04.385Z,0.30
2019-01-15T08:40:34.038Z,1.20
2019-01-15T08:43:03.629Z,2.60
2019-01-15T08:45:33.206Z,4.10
2019-01-15T08:48:10.095Z,5.50
2019-01-15T08:50:39.789Z,6.30
2019-01-15T08:53:09.437Z,5.80
2019-01-15T08:55:39.080Z,5.60
2019-01-15T08:58:08.793Z,5.30
2019-01-15T09:00:38.462Z,4.40
2019-01-15T09:03:08.080Z,3.90
2019-01-15T09:05:37.665Z,3.00
2019-01-15T09:08:07.266Z,2.30
2019-01-15T09:10:37.504Z,1.60
2019-01-15T09:13:07.080Z,1.10
2019-01-15T09:15:36.656Z,0.70
2019-01-15T09:18:06.305Z,0.30
2019-01-15T09:20:35.898Z,0.10
2019-01-15T09:23:05.746Z,-0.10
2019-01-15T09:25:35.536Z,-0.10
2019-01-15T09:28:06.147Z,-0.10
2019-01-15T09:30:35.826Z,0.10
2019-01-15T09:33:05.533Z,0.10
2019-01-15T09:35:35.128Z,0.10
2019-01-15T09:38:05.076Z,0.10
2019-01-15T09:40:34.688Z,0.10
2019-01-15T09:43:04.254Z,0.10
2019-01-15T09:45:33.834Z,0.30
2019-01-15T09:48:04.284Z,0.50
2019-01-15T09:50:33.948Z,0.70
2019-01-15T09:53:04.297Z,0.80
2019-01-15T09:55:35.352Z,1.00
2019-01-15T09:58:06.305Z,1.20
2019-01-15T10:00:35.985Z,1.30
2019-01-15T10:03:05.593Z,1.40
2019-01-15T10:05:35.250Z,1.40
2019-01-15T10:08:05.034Z,1.40
2019-01-15T10:10:34.686Z,1.40
2019-01-15T10:13:04.716Z,1.30
2019-01-15T10:15:34.286Z,1.20
2019-01-15T10:18:04.109Z,1.10
2019-01-15T10:20:33.678Z,0.90
2019-01-15T10:23:03.246Z,0.80
2019-01-15T10:25:33.039Z,0.60
2019-01-15T10:28:02.689Z,0.50
2019-01-15T10:30:39.978Z,0.30
2019-01-15T10:33:18.276Z,0.20
2019-01-15T10:35:53.593Z,0.10
2019-01-15T10:38:28.293Z,0.00
2019-01-15T10:40:58.368Z,-0.10
2019-01-15T10:43:28.244Z,-0.20
2019-01-15T10:45:57.836Z,-0.20
2019-01-15T10:48:27.430Z,-0.30
2019-01-15T10:50:57.092Z,-0.30
2019-01-15T10:53:28.853Z,-0.30
2019-01-15T10:55:58.483Z,-0.30
2019-01-15T10:58:28.092Z,-0.40
2019-01-15T11:00:57.654Z,-0.30
2019-01-15T11:03:27.241Z,-0.40
2019-01-15T11:05:56.857Z,-0.40
2019-01-15T11:08:26.437Z,-0.40
2019-01-15T11:10:56.098Z,-0.40
2019-01-15T11:13:25.685Z,-0.40
2019-01-15T11:15:55.376Z,-0.40
2019-01-15T11:18:25.020Z,-0.40
2019-01-15T11:20:54.605Z,-0.50
2019-01-15T11:23:25.259Z,-0.40
2019-01-15T11:25:54.950Z,-0.50
2019-01-15T11:28:24.646Z,-0.50
2019-01-15T11:30:55.118Z,-0.50
2019-01-15T11:33:25.784Z,-0.50
2019-01-15T11:35:55.428Z,-0.50
2019-01-15T11:38:25.087Z,-0.50
2019-01-15T11:40:54.759Z,-0.50
2019-01-15T11:43:24.367Z,-0.50
2019-01-15T11:45:53.974Z,-0.50
2019-01-15T11:48:23.552Z,-0.60
2019-01-15T11:50:53.141Z,-0.60
2019-01-15T11:53:22.855Z,-0.60
2019-01-15T11:55:52.413Z,-0.60
2019-01-15T11:58:22.006Z,-0.50
2019-01-15T12:00:53.232Z,-0.50
2019-01-15T12:03:30.488Z,-0.50
2019-01-15T12:06:17.789Z,-0.50
2019-01-15T12:08:54.818Z,-0.50
2019-01-15T12:11:29.081Z,-0.50
2019-01-15T12:14:06.156Z,-0.50
2019-01-15T12:16:43.170Z,-0.40
2019-01-15T12:19:17.362Z,-0.40
2019-01-15T12:22:04.576Z,-0.40
2019-01-15T12:24:47.581Z,-0.40
2019-01-15T12:27:18.817Z,-0.30
2019-01-15T12:29:53.000Z,-0.30
2019-01-15T12:32:33.851Z,-0.30
2019-01-15T12:35:07.783Z,-0.30
2019-01-15T12:37:57.198Z,-0.30
2019-01-15T12:40:28.426Z,-0.30
2019-01-15T12:43:11.467Z,-0.30
2019-01-15T12:45:51.560Z,-0.30
2019-01-15T12:48:22.879Z,-0.30
2019-01-15T12:50:59.733Z,-0.20
2019-01-15T12:53:47.648Z,-0.30
2019-01-15T12:56:36.980Z,-0.30
2019-01-15T12:59:24.232Z,-0.30
2019-01-15T13:02:11.719Z,-0.40
2019-01-15T13:04:54.746Z,-0.40
2019-01-15T13:07:35.075Z,-0.40
2019-01-15T13:10:15.293Z,-0.40
2019-01-15T13:12:46.544Z,-0.40
2019-01-15T13:15:29.287Z,-0.50
2019-01-15T13:17:53.445Z,-0.50
2019-01-15T13:20:27.401Z,-0.50
2019-01-15T13:23:07.461Z,-0.50
2019-01-15T13:25:44.804Z,-0.50
2019-01-15T13:28:16.024Z,-0.40
2019-01-15T13:30:59.148Z,-0.50
2019-01-15T13:33:36.966Z,-0.50
2019-01-15T13:36:17.712Z,-0.50
2019-01-15T13:39:05.216Z,-0.40
2019-01-15T13:41:36.457Z,-0.40
2019-01-15T13:44:13.484Z,-0.50
2019-01-15T13:46:44.702Z,-0.50
2019-01-15T13:49:27.859Z,-0.50
2019-01-15T13:51:59.095Z,-0.50
2019-01-15T13:54:46.542Z,-0.40
2019-01-15T13:57:20.217Z,-0.40
2019-01-15T14:00:06.493Z,-0.40
2019-01-15T14:02:46.602Z,-0.40
2019-01-15T14:05:33.835Z,-0.40
2019-01-15T14:08:08.002Z,-0.40
2019-01-15T14:10:56.198Z,-0.40
2019-01-15T14:13:30.104Z,-0.40
2019-01-15T14:16:13.171Z,-0.40
2019-01-15T14:19:00.422Z,-0.40
2019-01-15T14:21:47.408Z,-0.40
2019-01-15T14:24:30.392Z,-0.40
2019-01-15T14:27:16.780Z,-0.50
2019-01-15T14:29:48.047Z,-0.50
2019-01-15T14:32:19.263Z,-0.50
2019-01-15T14:35:06.702Z,-0.50
2019-01-15T14:37:40.688Z,-0.50
2019-01-15T14:40:25.162Z,-0.60
2019-01-15T14:43:05.180Z,-0.60
2019-01-15T14:45:39.217Z,-0.60
2019-01-15T14:48:10.436Z,-0.60
2019-01-15T14:50:41.676Z,-0.60
2019-01-15T14:53:24.878Z,-0.60
2019-01-15T14:56:01.762Z,-0.60
2019-01-15T14:58:51.103Z,-0.60
2019-01-15T15:01:38.397Z,-0.60
2019-01-15T15:04:15.119Z,-0.60
2019-01-15T15:07:02.680Z,-0.60
2019-01-15T15:09:36.946Z,-0.60
2019-01-15T15:12:08.198Z,-0.60
2019-01-15T15:15:06.134Z,-0.60
2019-01-15T15:17:43.223Z,-0.60
2019-01-15T15:20:17.686Z,-0.60
2019-01-15T15:22:55.007Z,-0.60
2019-01-15T15:25:27.193Z,-0.70
2019-01-15T15:28:03.869Z,-0.70
2019-01-15T15:30:35.087Z,-0.70
2019-01-15T15:33:18.398Z,-0.80
2019-01-15T15:36:01.727Z,-0.70
2019-01-15T15:38:35.913Z,-0.80
2019-01-15T15:41:07.232Z,-0.80
2019-01-15T15:43:38.418Z,-0.80
2019-01-15T15:46:21.500Z,-0.80
2019-01-15T15:48:53.086Z,-0.80
2019-01-15T15:51:36.182Z,-0.90
2019-01-15T15:54:10.168Z,-0.90
2019-01-15T15:56:41.421Z,-0.90
2019-01-15T15:59:27.758Z,-0.90
2019-01-15T16:01:59.324Z,-0.90
2019-01-15T16:04:47.001Z,-0.90
2019-01-15T16:07:27.289Z,-0.90
2019-01-15T16:09:58.597Z,-0.90
2019-01-15T16:12:48.027Z,-0.90
2019-01-15T16:15:35.126Z,-0.90
2019-01-15T16:18:25.581Z,-0.90
2019-01-15T16:20:59.487Z,-0.90
2019-01-15T16:23:48.366Z,-0.90
2019-01-15T16:26:22.566Z,-1.00
2019-01-15T16:28:57.472Z,-0.90
2019-01-15T16:31:31.422Z,-1.00
2019-01-15T16:34:06.325Z,-0.90
2019-01-15T16:36:37.769Z,-0.90
2019-01-15T16:39:16.146Z,-1.00
2019-01-15T16:41:47.407Z,-0.90
2019-01-15T16:44:24.400Z,-0.90
2019-01-15T16:47:11.853Z,-1.00
2019-01-15T16:49:43.085Z,-0.90
2019-01-15T16:52:14.510Z,-0.90
2019-01-15T16:54:48.644Z,-1.00
2019-01-15T16:57:21.393Z,-1.00
2019-01-15T16:59:52.627Z,-1.00
2019-01-15T17:02:35.832Z,-1.00
2019-01-15T17:05:24.324Z,-0.90
2019-01-15T17:07:58.872Z,-0.90
2019-01-15T17:10:30.118Z,-1.00
2019-01-15T17:13:02.320Z,-1.00
2019-01-15T17:15:42.650Z,-1.10
2019-01-15T17:18:13.866Z,-1.10
2019-01-15T17:20:56.967Z,-1.10
2019-01-15T17:23:41.136Z,-1.10
2019-01-15T17:26:12.424Z,-1.10
2019-01-15T17:28:55.467Z,-1.00
2019-01-15T17:31:32.572Z,-1.00
2019-01-15T17:34:03.756Z,-1.00
2019-01-15T17:36:50.185Z,-1.00
2019-01-15T17:39:27.443Z,-1.00
2019-01-15T17:42:14.935Z,-1.10
2019-01-15T17:44:49.253Z,-1.10
2019-01-15T17:47:32.497Z,-1.10
2019-01-15T17:50:15.727Z,-1.10
2019-01-15T17:52:46.938Z,-1.20
2019-01-15T17:55:21.200Z,-1.20
2019-01-15T17:57:58.178Z,-1.10
2019-01-15T18:00:35.494Z,-1.10
2019-01-15T18:03:22.779Z,-1.10
2019-01-15T18:06:03.081Z,-1.20
2019-01-15T18:08:50.596Z,-1.10
2019-01-15T18:11:38.157Z,-1.10
2019-01-15T18:14:12.362Z,-1.10
2019-01-15T18:16:48.643Z,-1.10
2019-01-15T18:19:19.474Z,-1.10
2019-01-15T18:21:50.723Z,-1.20
2019-01-15T18:24:33.824Z,-1.20
2019-01-15T18:27:05.214Z,-1.20
2019-01-15T18:29:39.282Z,-1.20
2019-01-15T18:32:10.499Z,-1.10
2019-01-15T18:34:50.924Z,-1.10
2019-01-15T18:37:22.188Z,-1.10
2019-01-15T18:40:09.248Z,-1.10
2019-01-15T18:42:56.742Z,-1.10
2019-01-15T18:45:28.015Z,-1.10
2019-01-15T18:48:02.264Z,-1.10
2019-01-15T18:50:51.741Z,-1.20
2019-01-15T18:53:23.021Z,-1.20
2019-01-15T18:56:03.171Z,-1.20
2019-01-15T18:58:49.263Z,-1.20
2019-01-15T19:01:23.268Z,-1.20
2019-01-15T19:03:57.231Z,-1.20
2019-01-15T19:06:43.657Z,-1.20
2019-01-15T19:09:17.809Z,-1.20
2019-01-15T19:12:05.273Z,-1.20
2019-01-15T19:14:36.580Z,-1.20
2019-01-15T19:17:25.420Z,-1.20
2019-01-15T19:19:59.734Z,-1.20
2019-01-15T19:22:37.026Z,-1.30
2019-01-15T19:25:24.258Z,-1.30
2019-01-15T19:28:11.935Z,-1.40
2019-01-15T19:30:43.157Z,-1.40
2019-01-15T19:33:22.223Z,-1.40
2019-01-15T19:36:11.502Z,-1.40
2019-01-15T19:38:42.738Z,-1.40
2019-01-15T19:41:30.336Z,-1.40
2019-01-15T19:44:10.715Z,-1.40
2019-01-15T19:46:41.863Z,-1.40
2019-01-15T19:49:29.575Z,-1.40
2019-01-15T19:52:15.920Z,-1.40
2019-01-15T19:54:56.243Z,-1.40
2019-01-15T19:57:39.438Z,-1.40
2019-01-15T20:00:16.538Z,-1.40
2019-01-15T20:02:47.879Z,-1.40
2019-01-15T20:05:29.514Z,-1.40
2019-01-15T20:08:06.611Z,-1.40
2019-01-15T20:10:37.974Z,-1.40
2019-01-15T20:13:09.403Z,-1.40
2019-01-15T20:15:46.401Z,-1.50
2019-01-15T20:18:25.990Z,-1.50
2019-01-15T20:21:11.783Z,-1.50
2019-01-15T20:23:51.954Z,-1.50
2019-01-15T20:26:28.898Z,-1.50
2019-01-15T20:29:03.203Z,-1.50
2019-01-15T20:31:39.834Z,-1.50
2019-01-15T20:34:16.997Z,-1.50
2019-01-15T20:36:57.297Z,-1.50
2019-01-15T20:39:43.654Z,-1.50
2019-01-15T20:42:14.909Z,-1.50
2019-01-15T20:44:49.086Z,-1.50
2019-01-15T20:47:25.446Z,-1.40
2019-01-15T20:50:08.326Z,-1.50
2019-01-15T20:52:45.068Z,-1.50
2019-01-15T20:55:28.398Z,-1.50
2019-01-15T20:58:05.703Z,-1.50
2019-01-15T21:00:37.034Z,-1.40
2019-01-15T21:03:14.415Z,-1.40
2019-01-15T21:05:45.772Z,-1.40
2019-01-15T21:08:19.955Z,-1.40
2019-01-15T21:10:56.662Z,-1.40
2019-01-15T21:13:33.867Z,-1.40
2019-01-15T21:16:05.141Z,-1.40
2019-01-15T21:18:48.082Z,-1.40
2019-01-15T21:21:25.320Z,-1.40
2019-01-15T21:24:12.714Z,-1.50
2019-01-15T21:26:46.384Z,-1.50
2019-01-15T21:29:29.331Z,-1.50
2019-01-15T21:32:09.700Z,-1.50
2019-01-15T21:34:57.158Z,-1.50
2019-01-15T21:37:33.813Z,-1.40
2019-01-15T21:40:08.115Z,-1.40
2019-01-15T21:42:39.346Z,-1.40
2019-01-15T21:45:17.088Z,-1.40
2019-01-15T21:47:54.927Z,-1.40
2019-01-15T21:50:26.077Z,-1.40
2019-01-15T21:53:13.714Z,-1.40
2019-01-15T21:55:50.715Z,-1.40
2019-01-15T21:58:30.890Z,-1.40
2019-01-15T22:01:04.880Z,-1.40
2019-01-15T22:03:48.206Z,-1.40
2019-01-15T22:06:25.463Z,-1.40
2019-01-15T22:08:56.699Z,-1.40
2019-01-15T22:11:43.846Z,-1.40
2019-01-15T22:14:31.421Z,-1.40
2019-01-15T22:17:08.343Z,-1.40
2019-01-15T22:19:51.320Z,-1.40
2019-01-15T22:22:34.735Z,-1.40
2019-01-15T22:25:19.981Z,-1.40
2019-01-15T22:28:07.540Z,-1.40
2019-01-15T22:30:38.827Z,-1.40
2019-01-15T22:33:15.994Z,-1.40
2019-01-15T22:35:56.122Z,-1.40
2019-01-15T22:38:45.150Z,-1.40
2019-01-15T22:41:31.208Z,-1.30
2019-01-15T22:44:02.434Z,-1.30
2019-01-15T22:46:33.744Z,-1.30
2019-01-15T22:49:21.030Z,-1.30
2019-01-15T22:52:01.055Z,-1.30
2019-01-15T22:54:32.294Z,-1.30
2019-01-15T22:57:09.516Z,-1.30
2019-01-15T22:59:49.413Z,-1.20
2019-01-15T23:02:35.485Z,-1.20
2019-01-15T23:05:07.506Z,-1.20
2019-01-15T23:07:47.550Z,-1.30
2019-01-15T23:10:27.877Z,-1.30
2019-01-15T23:12:59.098Z,-1.30
2019-01-15T23:15:30.337Z,-1.20
2019-01-15T23:18:17.778Z,-1.20
2019-01-15T23:20:58.024Z,-1.20
2019-01-15T23:23:35.234Z,-1.20
2019-01-15T23:26:12.652Z,-1.20
2019-01-15T23:28:54.900Z,-1.20
2019-01-15T23:31:26.140Z,-1.20
2019-01-15T23:33:57.358Z,-1.20
2019-01-15T23:36:32.638Z,-1.20
2019-01-15T23:39:06.893Z,-1.20
2019-01-15T23:41:53.036Z,-1.10
2019-01-15T23:44:24.263Z,-1.10
2019-01-15T23:46:58.247Z,-1.10
2019-01-15T23:49:38.272Z,-1.10
2019-01-15T23:52:09.504Z,-1.10
2019-01-15T23:54:46.483Z,-1.10
2019-01-15T23:57:20.676Z,-1.10
2019-01-15T23:59:51.939Z,-1.10
